createdAt,value
2023-03-11T00:00:56.287Z,3.44
2023-03-11T00:03:24.067Z,3.19
2023-03-11T00:05:52.717Z,4.19
2023-03-11T00:08:22.692Z,5.07
2023-03-11T00:10:54.352Z,2.57
2023-03-11T00:13:21.620Z,3.66
2023-03-11T00:15:50.652Z,5.44
2023-03-11T00:18:17.782Z,4.14
2023-03-11T00:20:46.342Z,2.01
2023-03-11T00:23:14.814Z,2.71
2023-03-11T00:25:44.296Z,2.09
2023-03-11T00:28:12.024Z,4.44
2023-03-11T00:30:40.624Z,2.49
2023-03-11T00:33:08.558Z,1.97
2023-03-11T00:35:36.275Z,2.89
2023-03-11T00:38:08.415Z,2.86
2023-03-11T00:40:36.345Z,2.69
2023-03-11T00:43:04.017Z,2.86
2023-03-11T00:45:31.821Z,1.77
2023-03-11T00:47:58.749Z,3.33
2023-03-11T00:50:32.405Z,3.73
2023-03-11T00:52:59.763Z,2.74
2023-03-11T00:55:32.213Z,1.87
2023-03-11T00:58:03.272Z,4.13
2023-03-11T01:00:37.484Z,2.99
2023-03-11T01:03:04.379Z,4.99
2023-03-11T01:05:33.847Z,4.23
2023-03-11T01:08:03.087Z,3.27
2023-03-11T01:10:31.410Z,5.07
2023-03-11T01:12:58.296Z,3.88
2023-03-11T01:15:32.025Z,4.24
2023-03-11T01:17:59.320Z,3.72
2023-03-11T01:20:26.310Z,5.33
2023-03-11T01:22:53.107Z,3.96
2023-03-11T01:25:22.322Z,3.91
2023-03-11T01:27:50.680Z,3.43
2023-03-11T01:30:23.855Z,6.34
2023-03-11T01:32:52.298Z,4.29
2023-03-11T01:35:21.314Z,4.93
2023-03-11T01:37:48.137Z,4.84
2023-03-11T01:40:24.271Z,4.56
2023-03-11T01:42:51.830Z,5.51
2023-03-11T01:45:36.434Z,4.28
2023-03-11T01:48:04.063Z,6.19
2023-03-11T01:50:35.971Z,6.26
2023-03-11T01:53:04.632Z,3.58
2023-03-11T01:55:32.744Z,3.95
2023-03-11T01:58:03.412Z,2.89
2023-03-11T02:00:30.281Z,3.94
2023-03-11T02:03:00.532Z,5.74
2023-03-11T02:05:28.052Z,2.35
2023-03-11T02:07:56.511Z,4.73
2023-03-11T02:10:27.682Z,3.97
2023-03-11T02:12:55.521Z,3.25
2023-03-11T02:15:24.440Z,4.91
2023-03-11T02:17:52.725Z,3.04
2023-03-11T02:20:32.455Z,4.65
2023-03-11T02:23:01.304Z,4.54
2023-03-11T02:25:53.937Z,4.37
2023-03-11T02:28:22.046Z,4.77
2023-03-11T02:30:50.605Z,3.71
2023-03-11T02:33:19.371Z,5.27
2023-03-11T02:35:47.365Z,4.06
2023-03-11T02:38:14.464Z,2.51
2023-03-11T02:40:49.725Z,4.85
2023-03-11T02:43:23.990Z,4.95
2023-03-11T02:45:50.913Z,4.80
2023-03-11T02:48:18.908Z,5.83
2023-03-11T02:50:47.253Z,3.69
2023-03-11T02:53:15.732Z,2.61
2023-03-11T02:55:43.022Z,3.88
2023-03-11T02:58:10.304Z,4.56
2023-03-11T03:00:37.467Z,1.90
2023-03-11T03:03:07.545Z,3.00
2023-03-11T03:05:34.271Z,3.91
2023-03-11T03:08:02.951Z,3.19
2023-03-11T03:10:30.184Z,1.41
2023-03-11T03:12:58.001Z,3.43
2023-03-11T03:15:25.916Z,3.81
2023-03-11T03:17:52.653Z,5.30
2023-03-11T03:20:22.675Z,3.61
2023-03-11T03:22:53.004Z,6.02
2023-03-11T03:25:22.770Z,4.00
2023-03-11T03:27:50.470Z,2.22
2023-03-11T03:30:17.327Z,5.19
2023-03-11T03:32:44.848Z,3.74
2023-03-11T03:35:15.101Z,1.52
2023-03-11T03:37:55.248Z,3.64
2023-03-11T03:40:22.972Z,2.95
2023-03-11T03:42:50.765Z,2.00
2023-03-11T03:45:17.990Z,3.64
2023-03-11T03:47:45.349Z,3.21
2023-03-11T03:50:13.365Z,3.95
2023-03-11T03:52:43.924Z,3.99
2023-03-11T03:55:11.410Z,2.50
2023-03-11T03:57:38.760Z,0.37
2023-03-11T04:00:10.677Z,1.41
2023-03-11T04:02:41.470Z,1.96
2023-03-11T04:05:16.688Z,3.94
2023-03-11T04:07:44.599Z,5.45
2023-03-11T04:10:14.277Z,5.01
2023-03-11T04:12:42.693Z,3.95
2023-03-11T04:15:10.192Z,3.58
2023-03-11T04:17:38.532Z,2.55
2023-03-11T04:20:10.354Z,0.93
2023-03-11T04:22:37.667Z,4.77
2023-03-11T04:25:05.589Z,3.79
2023-03-11T04:27:33.116Z,4.40
2023-03-11T04:30:01.274Z,3.63
2023-03-11T04:32:29.081Z,2.93
2023-03-11T04:34:56.462Z,4.76
2023-03-11T04:37:27.885Z,3.64
2023-03-11T04:39:54.723Z,3.52
2023-03-11T04:42:21.487Z,1.66
2023-03-11T04:44:48.745Z,2.94
2023-03-11T04:47:15.510Z,2.00
2023-03-11T04:49:43.016Z,3.38
2023-03-11T04:52:11.686Z,3.05
2023-03-11T04:54:38.560Z,5.25
2023-03-11T04:57:06.072Z,4.00
2023-03-11T04:59:33.507Z,4.42
2023-03-11T05:02:00.282Z,1.80
2023-03-11T05:04:27.181Z,1.55
2023-03-11T05:06:54.302Z,2.63
2023-03-11T05:09:24.202Z,1.61
2023-03-11T05:11:50.965Z,2.28
2023-03-11T05:14:19.311Z,1.52
2023-03-11T05:16:46.216Z,3.50
2023-03-11T05:19:31.862Z,2.56
2023-03-11T05:22:02.781Z,2.74
2023-03-11T05:24:30.133Z,2.99
2023-03-11T05:26:58.468Z,4.02
2023-03-11T05:29:25.939Z,3.65
2023-03-11T05:31:54.223Z,2.11
2023-03-11T05:34:21.468Z,3.31
2023-03-11T05:36:48.831Z,2.55
2023-03-11T05:39:16.106Z,3.54
2023-03-11T05:41:44.540Z,2.28
2023-03-11T05:44:11.961Z,1.85
2023-03-11T05:46:39.480Z,-0.35
2023-03-11T05:49:07.062Z,1.28
2023-03-11T05:51:34.361Z,1.67
2023-03-11T05:54:01.466Z,1.59
2023-03-11T05:56:36.110Z,2.12
2023-03-11T05:59:03.471Z,1.62
2023-03-11T06:01:33.963Z,1.04
2023-03-11T06:04:00.751Z,2.51
2023-03-11T06:06:28.645Z,2.61
2023-03-11T06:08:56.080Z,3.01
2023-03-11T06:11:25.791Z,1.42
2023-03-11T06:13:57.243Z,1.40
2023-03-11T06:16:26.887Z,1.02
2023-03-11T06:19:00.666Z,1.52
2023-03-11T06:21:30.772Z,2.64
2023-03-11T06:23:57.939Z,2.87
2023-03-11T06:26:27.807Z,1.44
2023-03-11T06:28:54.676Z,2.82
2023-03-11T06:31:27.168Z,3.43
2023-03-11T06:34:06.491Z,3.24
2023-03-11T06:36:33.818Z,2.45
2023-03-11T06:39:00.563Z,2.34
2023-03-11T06:41:29.039Z,3.30
2023-03-11T06:43:59.753Z,1.11
2023-03-11T06:46:28.031Z,1.00
2023-03-11T06:48:57.916Z,2.89
2023-03-11T06:51:25.175Z,4.10
2023-03-11T06:53:53.743Z,3.59
2023-03-11T06:56:23.274Z,4.91
2023-03-11T06:59:00.869Z,3.22
2023-03-11T07:01:31.329Z,3.54
2023-03-11T07:04:00.526Z,1.86
2023-03-11T07:06:29.328Z,1.76
2023-03-11T07:09:04.424Z,3.24
2023-03-11T07:11:33.052Z,2.39
2023-03-11T07:14:06.796Z,2.70
2023-03-11T07:16:39.136Z,3.45
2023-03-11T07:19:12.352Z,2.64
2023-03-11T07:21:40.318Z,4.03
2023-03-11T07:24:07.523Z,1.70
2023-03-11T07:26:35.834Z,2.07
2023-03-11T07:29:02.617Z,2.15
2023-03-11T07:31:32.017Z,3.20
2023-03-11T07:34:01.044Z,3.10
2023-03-11T07:36:29.537Z,1.52
2023-03-11T07:39:04.450Z,2.87
2023-03-11T07:41:33.934Z,4.16
2023-03-11T07:44:03.001Z,3.63
2023-03-11T07:46:31.591Z,3.37
2023-03-11T07:48:59.564Z,3.95
2023-03-11T07:51:30.864Z,5.70
2023-03-11T07:53:59.923Z,5.25
2023-03-11T07:56:29.867Z,4.17
2023-03-11T07:58:59.882Z,2.05
2023-03-11T08:01:30.672Z,2.45
2023-03-11T08:03:59.068Z,3.87
2023-03-11T08:06:31.310Z,2.77
2023-03-11T08:09:00.673Z,3.61
2023-03-11T08:11:28.656Z,3.12
2023-03-11T08:13:57.861Z,2.95
2023-03-11T08:16:25.902Z,5.52
2023-03-11T08:18:53.613Z,3.31
2023-03-11T08:21:26.571Z,2.65
2023-03-11T08:23:59.120Z,3.11
2023-03-11T08:26:26.787Z,4.38
2023-03-11T08:28:55.337Z,3.81
2023-03-11T08:31:31.173Z,4.75
2023-03-11T08:34:01.409Z,4.77
2023-03-11T08:36:29.264Z,4.58
2023-03-11T08:38:56.627Z,4.89
2023-03-11T08:41:23.467Z,3.29
2023-03-11T08:43:52.310Z,2.97
2023-03-11T08:46:30.185Z,4.37
2023-03-11T08:49:01.035Z,4.54
2023-03-11T08:51:30.365Z,3.89
2023-03-11T08:53:57.656Z,4.95
2023-03-11T08:56:24.492Z,6.23
2023-03-11T08:58:51.846Z,2.67
2023-03-11T09:01:20.240Z,3.08
2023-03-11T09:03:47.072Z,5.06
2023-03-11T09:06:16.273Z,1.46
2023-03-11T09:08:44.534Z,0.93
2023-03-11T09:11:13.597Z,-5.07
2023-03-11T09:13:42.726Z,4.32
2023-03-11T09:16:13.598Z,5.96
2023-03-11T09:18:41.090Z,6.56
2023-03-11T09:21:08.352Z,6.73
2023-03-11T09:23:35.265Z,5.43
2023-03-11T09:26:02.012Z,5.47
2023-03-11T09:28:28.745Z,7.01
2023-03-11T09:30:56.990Z,4.52
2023-03-11T09:33:24.112Z,8.32
2023-03-11T09:35:50.961Z,2.78
2023-03-11T09:38:17.717Z,6.33
2023-03-11T09:40:59.781Z,6.60
2023-03-11T09:43:55.456Z,6.21
2023-03-11T09:46:41.191Z,10.52
2023-03-11T09:49:23.537Z,6.49
2023-03-11T09:52:17.687Z,8.56
2023-03-11T09:54:51.652Z,6.42
2023-03-11T09:57:24.133Z,4.99
2023-03-11T09:59:51.338Z,5.61
2023-03-11T10:02:20.594Z,5.77
2023-03-11T10:05:03.468Z,7.22
2023-03-11T10:08:12.807Z,7.78
2023-03-11T10:10:49.176Z,9.95
2023-03-11T10:13:31.229Z,5.50
2023-03-11T10:16:10.133Z,7.43
2023-03-11T10:19:02.235Z,5.11
2023-03-11T10:21:30.254Z,6.35
2023-03-11T10:24:13.844Z,7.98
2023-03-11T10:26:58.008Z,6.03
2023-03-11T10:29:31.262Z,6.93
2023-03-11T10:32:13.116Z,9.48
2023-03-11T10:34:46.302Z,9.69
2023-03-11T10:37:28.975Z,9.73
2023-03-11T10:40:18.080Z,10.51
2023-03-11T10:42:47.504Z,9.99
2023-03-11T10:45:14.869Z,10.00
2023-03-11T10:47:42.506Z,11.53
2023-03-11T10:50:28.134Z,9.52
2023-03-11T10:53:24.501Z,10.24
2023-03-11T10:55:54.321Z,12.04
2023-03-11T10:58:27.209Z,9.29
2023-03-11T11:01:18.139Z,8.12
2023-03-11T11:03:50.879Z,11.20
2023-03-11T11:06:25.654Z,9.07
2023-03-11T11:09:14.549Z,11.74
2023-03-11T11:11:41.832Z,11.09
2023-03-11T11:14:10.373Z,7.24
2023-03-11T11:16:37.848Z,9.11
2023-03-11T11:19:16.198Z,11.04
2023-03-11T11:21:52.244Z,6.86
2023-03-11T11:24:24.611Z,11.11
2023-03-11T11:27:04.991Z,6.19
2023-03-11T11:29:32.708Z,7.00
2023-03-11T11:32:26.008Z,9.07
2023-03-11T11:34:59.211Z,7.19
2023-03-11T11:37:32.279Z,8.24
2023-03-11T11:40:17.194Z,11.92
2023-03-11T11:42:53.755Z,9.70
2023-03-11T11:45:34.628Z,7.64
2023-03-11T11:48:07.357Z,11.67
2023-03-11T11:50:43.373Z,11.25
2023-03-11T11:53:21.569Z,10.32
2023-03-11T11:55:52.601Z,4.05
2023-03-11T11:58:20.334Z,9.05
2023-03-11T12:00:58.237Z,10.83
2023-03-11T12:04:06.805Z,7.62
2023-03-11T12:06:48.472Z,6.43
2023-03-11T12:09:30.806Z,13.13
2023-03-11T12:12:08.788Z,8.82
2023-03-11T12:15:25.054Z,11.33
2023-03-11T12:17:59.514Z,11.05
2023-03-11T12:20:47.601Z,6.38
2023-03-11T12:23:37.897Z,9.57
2023-03-11T12:26:04.670Z,11.40
2023-03-11T12:29:19.855Z,9.28
2023-03-11T12:31:48.825Z,12.13
2023-03-11T12:34:19.899Z,9.67
2023-03-11T12:36:48.912Z,11.57
2023-03-11T12:39:34.250Z,11.61
2023-03-11T12:42:16.042Z,7.05
2023-03-11T12:44:45.579Z,12.05
2023-03-11T12:47:12.293Z,10.17
2023-03-11T12:49:44.908Z,13.33
2023-03-11T12:52:12.027Z,11.69
2023-03-11T12:54:44.229Z,10.82
2023-03-11T12:57:18.067Z,10.36
2023-03-11T13:00:25.441Z,8.43
2023-03-11T13:03:27.247Z,8.38
2023-03-11T13:06:21.199Z,8.33
2023-03-11T13:08:54.860Z,8.61
2023-03-11T13:11:27.457Z,8.27
2023-03-11T13:14:09.568Z,6.68
2023-03-11T13:16:37.685Z,7.66
2023-03-11T13:19:26.389Z,8.77
2023-03-11T13:21:54.478Z,9.37
2023-03-11T13:24:22.177Z,6.91
2023-03-11T13:27:07.093Z,6.86
2023-03-11T13:29:46.716Z,7.25
2023-03-11T13:32:50.885Z,9.42
2023-03-11T13:35:59.270Z,7.00
2023-03-11T13:38:50.101Z,5.91
2023-03-11T13:41:22.627Z,8.21
2023-03-11T13:43:51.377Z,10.45
2023-03-11T13:46:30.683Z,6.36
2023-03-11T13:49:06.614Z,10.82
2023-03-11T13:51:45.656Z,7.31
2023-03-11T13:54:20.196Z,8.03
2023-03-11T13:56:54.046Z,6.12
2023-03-11T13:59:28.432Z,3.98
2023-03-11T14:02:01.811Z,11.55
2023-03-11T14:04:36.139Z,7.93
2023-03-11T14:07:15.220Z,9.59
2023-03-11T14:09:42.333Z,7.91
2023-03-11T14:12:11.048Z,9.25
2023-03-11T14:15:01.139Z,9.60
2023-03-11T14:17:28.145Z,10.23
2023-03-11T14:20:18.828Z,8.58
2023-03-11T14:22:47.869Z,9.87
2023-03-11T14:25:20.347Z,7.91
2023-03-11T14:28:01.139Z,8.87
2023-03-11T14:30:32.406Z,9.33
2023-03-11T14:33:03.974Z,9.36
2023-03-11T14:35:34.142Z,7.12
2023-03-11T14:38:01.284Z,9.01
2023-03-11T14:40:34.188Z,8.69
2023-03-11T14:43:04.117Z,10.45
2023-03-11T14:45:34.212Z,8.14
2023-03-11T14:48:12.338Z,7.70
2023-03-11T14:50:39.105Z,7.81
2023-03-11T14:53:14.767Z,8.47
2023-03-11T14:55:56.270Z,6.47
2023-03-11T14:58:46.430Z,9.34
2023-03-11T15:01:26.702Z,9.22
2023-03-11T15:04:08.637Z,9.47
2023-03-11T15:06:43.077Z,7.23
2023-03-11T15:09:18.174Z,11.07
2023-03-11T15:11:52.295Z,10.19
2023-03-11T15:14:26.753Z,10.93
2023-03-11T15:16:55.145Z,11.66
2023-03-11T15:19:27.743Z,9.76
2023-03-11T15:21:59.690Z,9.34
2023-03-11T15:24:30.589Z,8.97
2023-03-11T15:27:04.639Z,9.37
2023-03-11T15:29:34.221Z,6.62
2023-03-11T15:32:47.250Z,9.53
2023-03-11T15:35:19.533Z,9.48
2023-03-11T15:37:50.870Z,10.50
2023-03-11T15:40:17.713Z,10.60
2023-03-11T15:42:45.232Z,9.43
2023-03-11T15:45:20.885Z,10.28
2023-03-11T15:47:50.776Z,10.11
2023-03-11T15:50:24.755Z,10.20
2023-03-11T15:52:57.033Z,10.84
2023-03-11T15:55:26.619Z,10.65
2023-03-11T15:58:00.353Z,11.26
2023-03-11T16:00:27.229Z,9.29
2023-03-11T16:02:54.697Z,11.63
2023-03-11T16:05:23.471Z,9.97
2023-03-11T16:07:50.998Z,9.71
2023-03-11T16:10:20.964Z,10.46
2023-03-11T16:12:48.445Z,10.11
2023-03-11T16:15:25.005Z,10.50
2023-03-11T16:17:53.366Z,9.47
2023-03-11T16:20:22.463Z,9.39
2023-03-11T16:22:53.799Z,10.06
2023-03-11T16:25:26.124Z,8.60
2023-03-11T16:27:55.002Z,6.23
2023-03-11T16:30:23.000Z,7.16
2023-03-11T16:32:50.407Z,8.47
2023-03-11T16:35:17.817Z,7.85
2023-03-11T16:37:44.885Z,8.93
2023-03-11T16:40:15.385Z,7.58
2023-03-11T16:42:43.775Z,9.69
2023-03-11T16:45:13.183Z,9.67
2023-03-11T16:47:39.923Z,7.13
2023-03-11T16:50:08.130Z,8.50
2023-03-11T16:52:35.389Z,7.51
2023-03-11T16:55:02.414Z,7.03
2023-03-11T16:57:29.524Z,8.36
2023-03-11T16:59:56.330Z,8.39
2023-03-11T17:02:24.572Z,8.47
2023-03-11T17:04:52.118Z,8.03
2023-03-11T17:07:19.683Z,5.76
2023-03-11T17:09:47.332Z,7.45
2023-03-11T17:12:15.862Z,9.52
2023-03-11T17:14:42.781Z,9.47
2023-03-11T17:17:09.607Z,9.17
2023-03-11T17:19:37.072Z,10.42
2023-03-11T17:22:04.708Z,11.50
2023-03-11T17:24:31.566Z,9.93
2023-03-11T17:26:58.552Z,8.54
2023-03-11T17:29:25.345Z,7.40
2023-03-11T17:31:52.558Z,6.72
2023-03-11T17:34:19.817Z,8.31
2023-03-11T17:36:46.755Z,6.61
2023-03-11T17:39:13.497Z,5.95
2023-03-11T17:41:40.190Z,7.93
2023-03-11T17:44:07.344Z,8.33
2023-03-11T17:46:36.831Z,8.29
2023-03-11T17:49:03.731Z,8.89
2023-03-11T17:51:31.113Z,8.05
2023-03-11T17:53:58.035Z,8.72
2023-03-11T17:56:24.842Z,8.80
2023-03-11T17:58:52.168Z,9.01
2023-03-11T18:01:23.064Z,7.85
2023-03-11T18:03:51.179Z,7.02
2023-03-11T18:06:19.233Z,8.91
2023-03-11T18:08:46.601Z,9.90
2023-03-11T18:11:18.763Z,10.03
2023-03-11T18:13:46.704Z,11.25
2023-03-11T18:16:22.294Z,10.70
2023-03-11T18:18:49.681Z,8.50
2023-03-11T18:21:18.164Z,7.93
2023-03-11T18:23:45.645Z,8.69
2023-03-11T18:26:17.327Z,8.06
2023-03-11T18:28:44.349Z,9.25
2023-03-11T18:31:20.198Z,9.63
2023-03-11T18:33:50.355Z,8.56
2023-03-11T18:36:23.234Z,8.72
2023-03-11T18:38:52.745Z,8.45
2023-03-11T18:41:20.463Z,8.98
2023-03-11T18:43:47.458Z,8.04
2023-03-11T18:46:15.996Z,8.52
2023-03-11T18:48:42.911Z,7.63
2023-03-11T18:51:09.717Z,8.51
2023-03-11T18:53:38.534Z,8.46
2023-03-11T18:56:08.716Z,9.19
2023-03-11T18:58:35.830Z,8.30
2023-03-11T19:01:12.531Z,8.68
2023-03-11T19:03:39.683Z,8.51
2023-03-11T19:06:11.550Z,8.32
2023-03-11T19:08:38.690Z,8.62
2023-03-11T19:11:10.581Z,9.32
2023-03-11T19:13:46.933Z,6.21
2023-03-11T19:16:17.596Z,5.82
2023-03-11T19:18:45.206Z,6.47
2023-03-11T19:21:13.648Z,7.17
2023-03-11T19:23:40.628Z,8.13
2023-03-11T19:26:08.639Z,7.70
2023-03-11T19:28:35.626Z,7.44
2023-03-11T19:31:03.664Z,7.38
2023-03-11T19:33:31.055Z,7.44
2023-03-11T19:36:01.501Z,7.54
2023-03-11T19:38:29.370Z,8.52
2023-03-11T19:41:23.438Z,8.61
2023-03-11T19:43:50.237Z,9.40
2023-03-11T19:46:21.359Z,8.78
2023-03-11T19:48:49.433Z,9.41
2023-03-11T19:51:17.419Z,9.17
2023-03-11T19:53:44.307Z,8.79
2023-03-11T19:56:11.299Z,7.67
2023-03-11T19:58:40.926Z,6.44
2023-03-11T20:01:15.349Z,5.40
2023-03-11T20:03:43.061Z,4.52
2023-03-11T20:06:10.136Z,5.81
2023-03-11T20:08:38.810Z,5.33
2023-03-11T20:11:06.785Z,6.58
2023-03-11T20:13:36.728Z,6.51
2023-03-11T20:16:09.455Z,6.54
2023-03-11T20:18:36.818Z,8.01
2023-03-11T20:21:08.025Z,8.56
2023-03-11T20:23:35.232Z,8.61
2023-03-11T20:26:06.902Z,7.34
2023-03-11T20:28:34.681Z,8.00
2023-03-11T20:31:09.428Z,7.68
2023-03-11T20:33:38.067Z,8.22
2023-03-11T20:36:07.987Z,8.58
2023-03-11T20:38:35.465Z,8.64
2023-03-11T20:41:05.900Z,8.31
2023-03-11T20:43:34.869Z,8.14
2023-03-11T20:46:01.986Z,8.56
2023-03-11T20:48:29.413Z,7.16
2023-03-11T20:51:25.227Z,7.74
2023-03-11T20:53:54.336Z,6.80
2023-03-11T20:56:24.693Z,4.34
2023-03-11T20:58:55.940Z,6.19
2023-03-11T21:01:29.519Z,9.00
2023-03-11T21:03:59.128Z,8.81
2023-03-11T21:06:29.088Z,7.88
2023-03-11T21:08:59.033Z,7.96
2023-03-11T21:11:26.876Z,5.76
2023-03-11T21:13:55.202Z,2.15
2023-03-11T21:16:24.631Z,3.44
2023-03-11T21:18:51.519Z,4.07
2023-03-11T21:21:19.730Z,6.55
2023-03-11T21:23:48.022Z,5.93
2023-03-11T21:26:16.698Z,5.49
2023-03-11T21:28:46.953Z,5.89
2023-03-11T21:31:19.954Z,5.71
2023-03-11T21:33:48.229Z,7.17
2023-03-11T21:36:16.270Z,7.16
2023-03-11T21:38:43.156Z,7.34
2023-03-11T21:41:19.292Z,8.29
2023-03-11T21:43:46.911Z,8.14
2023-03-11T21:46:17.025Z,8.39
2023-03-11T21:48:44.058Z,5.81
2023-03-11T21:51:11.115Z,7.01
2023-03-11T21:53:39.753Z,4.83
2023-03-11T21:56:09.590Z,4.64
2023-03-11T21:58:36.886Z,5.56
2023-03-11T22:01:09.501Z,6.77
2023-03-11T22:03:39.766Z,8.71
2023-03-11T22:06:10.615Z,7.66
2023-03-11T22:08:38.696Z,8.01
2023-03-11T22:11:12.899Z,7.85
2023-03-11T22:13:40.448Z,7.61
2023-03-11T22:16:08.301Z,6.81
2023-03-11T22:18:35.666Z,6.68
2023-03-11T22:21:02.949Z,7.58
2023-03-11T22:23:30.001Z,7.46
2023-03-11T22:25:57.040Z,6.40
2023-03-11T22:28:25.150Z,7.66
2023-03-11T22:30:51.976Z,6.18
2023-03-11T22:33:18.764Z,6.24
2023-03-11T22:35:56.681Z,7.00
2023-03-11T22:38:24.317Z,7.25
2023-03-11T22:40:51.894Z,5.14
2023-03-11T22:43:18.820Z,5.61
2023-03-11T22:45:46.260Z,5.32
2023-03-11T22:48:13.191Z,7.38
2023-03-11T22:50:42.289Z,7.68
2023-03-11T22:53:11.258Z,6.58
2023-03-11T22:55:44.657Z,7.41
2023-03-11T22:58:12.391Z,7.52
2023-03-11T23:00:40.557Z,9.04
2023-03-11T23:03:07.382Z,8.13
2023-03-11T23:05:41.708Z,7.85
2023-03-11T23:08:12.053Z,6.38
2023-03-11T23:10:46.331Z,7.60
2023-03-11T23:13:13.742Z,4.21
2023-03-11T23:15:43.546Z,3.70
2023-03-11T23:18:11.620Z,6.52
2023-03-11T23:20:41.358Z,7.56
2023-03-11T23:23:09.999Z,6.80
2023-03-11T23:25:38.849Z,4.36
2023-03-11T23:28:06.667Z,7.05
2023-03-11T23:30:33.957Z,7.40
2023-03-11T23:33:02.940Z,4.77
2023-03-11T23:35:30.980Z,4.73
2023-03-11T23:37:57.897Z,5.41
2023-03-11T23:40:25.731Z,2.85
2023-03-11T23:42:52.529Z,6.04
2023-03-11T23:45:19.278Z,5.71
2023-03-11T23:47:46.020Z,4.47
2023-03-11T23:50:12.769Z,4.64
2023-03-11T23:52:40.157Z,3.78
2023-03-11T23:55:07.595Z,5.26
2023-03-11T23:57:35.988Z,4.92
